Time;durP1;ratioP1;P1;durP2;ratioP2;P2;SDS_P1;SDS_P2;PMS_P1;PMS_P2;Temp;Humidity;BMP_temperature;BMP_pressure;BME280_temperature;BME280_humidity;BME280_pressure;Samples;Min_cycle;Max_cycle;Signal;HPM_P1;HPM_P2
2020/12/25 00:00:09;;;;;;;;;;;;;;;;;;5038870;28;20434;-87
2020/12/25 00:02:35;;;;;;;;;;;;;;;;;;5038984;28;20686;-88
2020/12/25 00:05:02;;;;;;;;;;;;;;;;;;5042051;28;20415;-88
2020/12/25 00:07:28;;;;;;;;;;;;;;;;;;5041446;28;20395;-88
2020/12/25 00:09:55;;;;;;;;;;;;;;;;;;5040809;28;20694;-88
2020/12/25 00:12:21;;;;;;;;;;;;;;;;;;5048451;28;20361;-88
2020/12/25 00:14:47;;;;;;;;;;;;;;;;;;5046781;28;20416;-87
2020/12/25 00:17:14;;;;;;;;;;;;;;;;;;5052043;28;20388;-88
2020/12/25 00:19:40;;;;;;;;;;;;;;;;;;5052723;28;20387;-88
2020/12/25 00:22:06;;;;;;;;;;;;;;;;;;5042484;28;20863;-89
2020/12/25 00:24:33;;;;;;;;;;;;;;;;;;5043688;28;20359;-88
2020/12/25 00:26:59;;;;;;;;;;;;;;;;;;5043646;28;20396;-88
2020/12/25 00:29:26;;;;;;;;;;;;;;;;;;5045644;28;20386;-88
2020/12/25 00:31:52;;;;;;;;;;;;;;;;;;5041448;28;20852;-88
2020/12/25 00:34:18;;;;;;;;;;;;;;;;;;5038582;28;20359;-88
2020/12/25 00:36:45;;;;;;;;;;;;;;;;;;5038087;28;20379;-87
2020/12/25 00:39:11;;;;;;;;;;;;;;;;;;5038508;28;20836;-88
2020/12/25 00:41:37;;;;;;;;;;;;;;;;;;5039830;28;20352;-88
2020/12/25 00:44:04;;;;;;;;;;;;;;;;;;5040916;28;20410;-88
2020/12/25 00:46:30;;;;;;;;;;;;;;;;;;5040414;28;20383;-88
2020/12/25 00:48:57;;;;;;;;;;;;;;;;;;5040499;28;20663;-89
2020/12/25 00:51:23;;;;;;;;;;;;;;;;;;5039828;28;20373;-88
2020/12/25 00:53:49;;;;;;;;;;;;;;;;;;5040386;28;20398;-89
2020/12/25 00:56:16;;;;;;;;;;;;;;;;;;5040908;28;20398;-89
2020/12/25 00:58:42;;;;;;;;;;;;;;;;;;5041160;28;20399;-87
2020/12/25 01:01:09;;;;;;;;;;;;;;;;;;5038877;28;20399;-87
2020/12/25 01:03:35;;;;;;;;;;;;;;;;;;5043085;28;20470;-89
2020/12/25 01:06:01;;;;;;;;;;;;;;;;;;5041890;28;20897;-89
2020/12/25 01:08:28;;;;;;;;;;;;;;;;;;5041760;28;20346;-89
2020/12/25 01:10:54;;;;;;;;;;;;;;;;;;5041564;28;20388;-89
2020/12/25 01:13:20;;;;;;;;;;;;;;;;;;5043056;28;20391;-89
2020/12/25 01:15:47;;;;;;;;;;;;;;;;;;5042171;28;20755;-88
2020/12/25 01:18:13;;;;;;;;;;;;;;;;;;5038785;28;20377;-88
2020/12/25 01:20:40;;;;;;;;;;;;;;;;;;5038046;28;20422;-89
2020/12/25 01:23:06;;;;;;;;;;;;;;;;;;5038861;28;20438;-89
2020/12/25 01:25:32;;;;;;;;;;;;;;;;;;5038914;28;20416;-89
2020/12/25 01:27:59;;;;;;;;;;;;;;;;;;5039937;28;20388;-89
2020/12/25 01:30:25;;;;;;;;;;;;;;;;;;5039181;28;20391;-88
2020/12/25 01:32:51;;;;;;;;;;;;;;;;;;5038665;28;20729;-88
2020/12/25 01:35:18;;;;;;;;;;;;;;;;;;5038169;28;20393;-88
2020/12/25 01:37:44;;;;;;;;;;;;;;;;;;5038392;28;20399;-88
2020/12/25 01:40:11;;;;;;;;;;;;;;;;;;5038942;28;20383;-88
2020/12/25 01:42:37;;;;;;;;;;;;;;;;;;5037487;28;20395;-89
2020/12/25 01:45:03;;;;;;;;;;;;;;;;;;5037226;28;20442;-89
2020/12/25 01:47:30;;;;;;;;;;;;;;;;;;5037288;28;20396;-89
2020/12/25 01:49:56;;;;;;;;;;;;;;;;;;5037679;28;20394;-89
2020/12/25 01:52:22;;;;;;;;;;;;;;;;;;5037710;28;20421;-89
2020/12/25 01:54:49;;;;;;;;;;;;;;;;;;5040645;28;20406;-90
2020/12/25 01:57:15;;;;;;;;;;;;;;;;;;5052531;28;20402;-90
2020/12/25 01:59:42;;;;;;;;;;;;;;;;;;5041644;28;20483;-91
2020/12/25 02:02:08;;;;;;;;;;;;;;;;;;5041836;28;20421;-90
2020/12/25 02:04:35;;;;;;;;;;;;;;;;;;5042451;28;20411;-91
2020/12/25 02:07:01;;;;;;;;;;;;;;;;;;5039925;28;20380;-91
2020/12/25 02:09:28;;;;;;;;;;;;;;;;;;5042069;28;20401;-91
2020/12/25 02:11:54;;;;;;;;;;;;;;;;;;5042745;28;20402;-92
2020/12/25 02:14:21;;;;;;;;;;;;;;;;;;5041012;28;20425;-92
2020/12/25 02:16:47;;;;;;;;;;;;;;;;;;5040220;28;20403;-92
2020/12/25 02:19:14;;;;;;;;;;;;;;;;;;5042466;28;20708;-92
2020/12/25 02:21:41;;;;;;;;;;;;;;;;;;5047887;28;20389;-92
2020/12/25 02:24:08;;;;;;;;;;;;;;;;;;5042040;28;20503;-90
2020/12/25 02:26:35;;;;;;;;;;;;;;;;;;5037938;28;20453;-92
2020/12/25 02:29:01;;;;;;;;;;;;;;;;;;5037696;28;20344;-90
2020/12/25 02:31:28;;;;;;;;;;;;;;;;;;5058868;28;20371;-89
2020/12/25 02:33:54;;;;;;;;;;;;;;;;;;5059203;28;20391;-91
2020/12/25 02:36:20;;;;;;;;;;;;;;;;;;5047249;28;20396;-91
2020/12/25 02:38:47;;;;;;;;;;;;;;;;;;5041535;28;20387;-90
2020/12/25 02:41:13;;;;;;;;;;;;;;;;;;5058141;28;20423;-93
2020/12/25 02:43:40;;;;;;;;;;;;;;;;;;5058372;28;20423;-90
2020/12/25 02:46:06;;;;;;;;;;;;;;;;;;5051471;28;20403;-91
2020/12/25 02:48:33;;;;;;;;;;;;;;;;;;5045100;28;20399;-90
2020/12/25 02:50:59;;;;;;;;;;;;;;;;;;5044173;28;20402;-90
2020/12/25 02:53:26;;;;;;;;;;;;;;;;;;5039327;28;20396;-89
2020/12/25 02:55:52;;;;;;;;;;;;;;;;;;5045227;28;20481;-89
2020/12/25 02:58:18;;;;;;;;;;;;;;;;;;5056516;28;20371;-87
2020/12/25 03:00:45;;;;;;;;;;;;;;;;;;5059006;28;20403;-88
2020/12/25 03:03:11;;;;;;;;;;;;;;;;;;5045821;28;20387;-90
2020/12/25 03:05:38;;;;;;;;;;;;;;;;;;5036170;28;20423;-89
2020/12/25 03:08:04;;;;;;;;;;;;;;;;;;5035423;28;20399;-89
2020/12/25 03:10:31;;;;;;;;;;;;;;;;;;5035717;28;20401;-90
2020/12/25 03:12:57;;;;;;;;;;;;;;;;;;5036819;28;20395;-90
2020/12/25 03:15:24;;;;;;;;;;;;;;;;;;5037418;28;20442;-92
2020/12/25 03:17:50;;;;;;;;;;;;;;;;;;5036689;28;20399;-91
2020/12/25 03:20:17;;;;;;;;;;;;;;;;;;5036879;28;20391;-89
2020/12/25 03:22:43;;;;;;;;;;;;;;;;;;5039567;28;20437;-89
2020/12/25 03:25:10;;;;;;;;;;;;;;;;;;5058790;28;20405;-91
2020/12/25 03:27:36;;;;;;;;;;;;;;;;;;5057231;28;20379;-89
2020/12/25 03:30:03;;;;;;;;;;;;;;;;;;5051343;28;20398;-90
2020/12/25 03:32:29;;;;;;;;;;;;;;;;;;5038719;28;20391;-89
2020/12/25 03:34:55;;;;;;;;;;;;;;;;;;5051414;28;20466;-89
2020/12/25 03:37:22;;;;;;;;;;;;;;;;;;5042459;28;20549;-89
2020/12/25 03:39:49;;;;;;;;;;;;;;;;;;5039186;28;20398;-89
2020/12/25 03:42:15;;;;;;;;;;;;;;;;;;5040134;28;20407;-89
2020/12/25 03:44:41;;;;;;;;;;;;;;;;;;5039233;28;20419;-89
2020/12/25 03:47:08;;;;;;;;;;;;;;;;;;5040034;28;20401;-89
2020/12/25 03:49:34;;;;;;;;;;;;;;;;;;5039848;28;20855;-90
2020/12/25 03:52:01;;;;;;;;;;;;;;;;;;5041565;28;20401;-89
2020/12/25 03:54:27;;;;;;;;;;;;;;;;;;5062013;28;20415;-89
2020/12/25 03:56:54;;;;;;;;;;;;;;;;;;5054723;28;20744;-90
2020/12/25 03:59:20;;;;;;;;;;;;;;;;;;5040151;28;20766;-91
2020/12/25 04:01:47;;;;;;;;;;;;;;;;;;5040368;28;20352;-90
2020/12/25 04:04:13;;;;;;;;;;;;;;;;;;5039210;28;20419;-90
2020/12/25 04:06:40;;;;;;;;;;;;;;;;;;5039999;28;20844;-90
2020/12/25 04:09:06;;;;;;;;;;;;;;;;;;5039536;28;20344;-90
2020/12/25 04:11:32;;;;;;;;;;;;;;;;;;5039814;28;20404;-90
2020/12/25 04:13:59;;;;;;;;;;;;;;;;;;5038649;28;20388;-90
2020/12/25 04:16:25;;;;;;;;;;;;;;;;;;5039333;28;20339;-89
2020/12/25 04:18:52;;;;;;;;;;;;;;;;;;5040243;28;20486;-90
2020/12/25 04:21:18;;;;;;;;;;;;;;;;;;5039123;28;20744;-90
2020/12/25 04:23:45;;;;;;;;;;;;;;;;;;5043545;28;20380;-90
2020/12/25 04:26:11;;;;;;;;;;;;;;;;;;5042633;28;20399;-91
2020/12/25 04:28:38;;;;;;;;;;;;;;;;;;5045350;28;20395;-93
2020/12/25 04:31:04;;;;;;;;;;;;;;;;;;5043014;28;20387;-90
2020/12/25 04:33:31;;;;;;;;;;;;;;;;;;5040803;28;20406;-90
2020/12/25 04:35:57;;;;;;;;;;;;;;;;;;5044562;28;20425;-90
2020/12/25 04:38:24;;;;;;;;;;;;;;;;;;5042876;28;20402;-90
2020/12/25 04:40:50;;;;;;;;;;;;;;;;;;5038879;28;20411;-89
2020/12/25 04:43:16;;;;;;;;;;;;;;;;;;5038955;28;20886;-89
2020/12/25 04:45:43;;;;;;;;;;;;;;;;;;5039515;28;20431;-90
2020/12/25 04:48:09;;;;;;;;;;;;;;;;;;5040430;28;20724;-91
2020/12/25 04:50:36;;;;;;;;;;;;;;;;;;5039644;28;20419;-91
2020/12/25 04:53:02;;;;;;;;;;;;;;;;;;5039148;28;20395;-91
2020/12/25 04:55:29;;;;;;;;;;;;;;;;;;5038775;28;20426;-91
2020/12/25 04:57:55;;;;;;;;;;;;;;;;;;5039880;28;20395;-91
2020/12/25 05:00:22;;;;;;;;;;;;;;;;;;5045724;28;20395;-90
2020/12/25 05:02:48;;;;;;;;;;;;;;;;;;5059602;28;20387;-89
2020/12/25 05:05:15;;;;;;;;;;;;;;;;;;5049616;28;20415;-89
2020/12/25 05:07:41;;;;;;;;;;;;;;;;;;5051527;28;20404;-90
2020/12/25 05:10:07;;;;;;;;;;;;;;;;;;5048574;28;20451;-89
2020/12/25 05:12:34;;;;;;;;;;;;;;;;;;5050017;28;20399;-89
2020/12/25 05:15:00;;;;;;;;;;;;;;;;;;5051452;28;20467;-90
2020/12/25 05:17:27;;;;;;;;;;;;;;;;;;5048776;28;20391;-90
2020/12/25 05:19:53;;;;;;;;;;;;;;;;;;5038103;28;20404;-90
2020/12/25 05:22:20;;;;;;;;;;;;;;;;;;5037086;28;20411;-90
2020/12/25 05:24:46;;;;;;;;;;;;;;;;;;5037608;28;20412;-91
2020/12/25 05:27:13;;;;;;;;;;;;;;;;;;5038396;28;20847;-91
2020/12/25 05:29:39;;;;;;;;;;;;;;;;;;5039551;28;20389;-91
2020/12/25 05:32:05;;;;;;;;;;;;;;;;;;5047849;28;20428;-90
2020/12/25 05:34:32;;;;;;;;;;;;;;;;;;5058541;28;20421;-91
2020/12/25 05:36:58;;;;;;;;;;;;;;;;;;5044421;28;20411;-91
2020/12/25 05:39:25;;;;;;;;;;;;;;;;;;5041005;28;20395;-90
2020/12/25 05:41:52;;;;;;;;;;;;;;;;;;5041507;28;20416;-90
2020/12/25 05:44:18;;;;;;;;;;;;;;;;;;5040029;28;20418;-91
2020/12/25 05:46:45;;;;;;;;;;;;;;;;;;5038435;28;20399;-90
2020/12/25 05:49:11;;;;;;;;;;;;;;;;;;5037844;28;20453;-90
2020/12/25 05:51:37;;;;;;;;;;;;;;;;;;5037254;28;20406;-91
2020/12/25 05:54:04;;;;;;;;;;;;;;;;;;5037861;28;20473;-90
2020/12/25 05:56:30;;;;;;;;;;;;;;;;;;5037062;28;20384;-90
2020/12/25 05:58:57;;;;;;;;;;;;;;;;;;5038528;28;20398;-90
2020/12/25 06:01:23;;;;;;;;;;;;;;;;;;5037325;28;20408;-90
2020/12/25 06:03:50;;;;;;;;;;;;;;;;;;5036951;28;20405;-90
2020/12/25 06:06:16;;;;;;;;;;;;;;;;;;5036343;28;20387;-89
2020/12/25 06:08:42;;;;;;;;;;;;;;;;;;5036645;28;20391;-89
2020/12/25 06:11:09;;;;;;;;;;;;;;;;;;5036405;28;20384;-89
2020/12/25 06:13:35;;;;;;;;;;;;;;;;;;5037585;28;20402;-88
2020/12/25 06:16:02;;;;;;;;;;;;;;;;;;5037083;28;20416;-89
2020/12/25 06:18:28;;;;;;;;;;;;;;;;;;5036252;28;20840;-88
2020/12/25 06:20:54;;;;;;;;;;;;;;;;;;5036504;28;20407;-89
2020/12/25 06:23:21;;;;;;;;;;;;;;;;;;5037684;28;20404;-88
2020/12/25 06:25:47;;;;;;;;;;;;;;;;;;5037678;28;20446;-88
2020/12/25 06:28:14;;;;;;;;;;;;;;;;;;5037352;28;20426;-88
2020/12/25 06:30:40;;;;;;;;;;;;;;;;;;5037871;28;20878;-88
2020/12/25 06:33:06;;;;;;;;;;;;;;;;;;5038835;28;20396;-88
2020/12/25 06:35:33;;;;;;;;;;;;;;;;;;5038209;28;20775;-88
2020/12/25 06:37:59;;;;;;;;;;;;;;;;;;5039325;28;20395;-88
2020/12/25 06:40:26;;;;;;;;;;;;;;;;;;5040065;28;20387;-88
2020/12/25 06:42:52;;;;;;;;;;;;;;;;;;5041684;28;20395;-87
2020/12/25 06:45:19;;;;;;;;;;;;;;;;;;5040222;28;20413;-88
2020/12/25 06:47:45;;;;;;;;;;;;;;;;;;5048198;28;20400;-87
2020/12/25 06:50:11;;;;;;;;;;;;;;;;;;5056780;28;20392;-88
2020/12/25 06:52:38;;;;;;;;;;;;;;;;;;5045479;28;20408;-88
2020/12/25 06:55:04;;;;;;;;;;;;;;;;;;5039898;28;20486;-88
2020/12/25 06:57:31;;;;;;;;;;;;;;;;;;5040041;28;20398;-88
2020/12/25 06:59:57;;;;;;;;;;;;;;;;;;5039070;28;20395;-88
2020/12/25 07:02:23;;;;;;;;;;;;;;;;;;5038497;28;20403;-88
2020/12/25 07:04:51;;;;;;;;;;;;;;;;;;5039089;28;20418;-88
2020/12/25 07:07:20;;;;;;;;;;;;;;;;;;5041082;28;20454;-86
2020/12/25 07:09:46;;;;;;;;;;;;;;;;;;5038343;28;20465;-87
2020/12/25 07:12:13;;;;;;;;;;;;;;;;;;5036516;28;20445;-87
2020/12/25 07:14:39;;;;;;;;;;;;;;;;;;5038494;28;20489;-87
2020/12/25 07:17:05;;;;;;;;;;;;;;;;;;5040008;28;20441;-87
2020/12/25 07:19:32;;;;;;;;;;;;;;;;;;5040645;28;20395;-87
2020/12/25 07:21:58;;;;;;;;;;;;;;;;;;5040486;28;20415;-87
2020/12/25 07:24:25;;;;;;;;;;;;;;;;;;5041211;28;20410;-88
2020/12/25 07:26:51;;;;;;;;;;;;;;;;;;5040468;28;20493;-87
2020/12/25 07:29:17;;;;;;;;;;;;;;;;;;5040629;28;20844;-87
2020/12/25 07:31:44;;;;;;;;;;;;;;;;;;5040263;28;20398;-87
2020/12/25 07:34:15;;;;;;;;;;;;;;;;;;5040617;28;20415;-87
2020/12/25 07:36:42;;;;;;;;;;;;;;;;;;5040483;28;20387;-87
2020/12/25 07:39:08;;;;;;;;;;;;;;;;;;5040820;28;20840;-87
2020/12/25 07:41:34;;;;;;;;;;;;;;;;;;5040816;28;20402;-88
2020/12/25 07:44:02;;;;;;;;;;;;;;;;;;5041620;28;20394;-87
2020/12/25 07:46:28;;;;;;;;;;;;;;;;;;5041086;28;20395;-88
2020/12/25 07:48:55;;;;;;;;;;;;;;;;;;5041251;28;20387;-87
2020/12/25 07:51:21;;;;;;;;;;;;;;;;;;5041171;28;20929;-87
2020/12/25 07:53:47;;;;;;;;;;;;;;;;;;5041521;28;20387;-87
2020/12/25 07:56:18;;;;;;;;;;;;;;;;;;5041237;28;20391;-88
2020/12/25 07:58:45;;;;;;;;;;;;;;;;;;5042713;28;20474;-87
2020/12/25 08:01:11;;;;;;;;;;;;;;;;;;5041295;28;20974;-87
2020/12/25 08:03:37;;;;;;;;;;;;;;;;;;5041922;28;20398;-87
2020/12/25 08:06:13;;;;;;;;;;;;;;;;;;5043468;28;20415;-86
2020/12/25 08:08:39;;;;;;;;;;;;;;;;;;5042359;28;20417;-86
2020/12/25 08:11:06;;;;;;;;;;;;;;;;;;5041994;28;20422;-86
2020/12/25 08:13:32;;;;;;;;;;;;;;;;;;5042599;28;20390;-86
2020/12/25 08:15:59;;;;;;;;;;;;;;;;;;5041148;28;20423;-86
2020/12/25 08:18:28;;;;;;;;;;;;;;;;;;5042428;28;20710;-86
2020/12/25 08:37:39;;;;;;;;;;;;;;;;;;5038290;28;20383;-86
2020/12/25 08:40:09;;;;;;;;;;;;;;;;;;5041886;28;20392;-86
2020/12/25 08:45:19;;;;;;;;;;;;;;;;;;5041793;28;20414;-91
2020/12/25 08:48:03;;;;;;;;;;;;;;;;;;5042290;28;20510;-86
2020/12/25 09:02:01;;;;;;;;;;;;;;;;;;5040139;28;20451;-86
2020/12/25 09:04:28;;;;;;;;;;;;;;;;;;5042223;28;20482;-86
2020/12/25 09:06:54;;;;;;;;;;;;;;;;;;5043028;28;20395;-86
2020/12/25 09:09:21;;;;;;;;;;;;;;;;;;5043796;28;20395;-86
2020/12/25 09:11:47;;;;;;;;;;;;;;;;;;5041868;28;20402;-86
2020/12/25 09:14:14;;;;;;;;;;;;;;;;;;5044042;28;20442;-86
2020/12/25 09:16:40;;;;;;;;;;;;;;;;;;5045387;28;20402;-86
2020/12/25 09:19:07;;;;;;;;;;;;;;;;;;5042301;28;20421;-86
2020/12/25 09:21:33;;;;;;;;;;;;;;;;;;5041933;28;20420;-86
2020/12/25 09:23:59;;;;;;;;;;;;;;;;;;5043226;28;20890;-87
2020/12/25 09:26:26;;;;;;;;;;;;;;;;;;5042998;28;20351;-86
2020/12/25 09:28:52;;;;;;;;;;;;;;;;;;5045025;28;20395;-86
2020/12/25 09:31:19;;;;;;;;;;;;;;;;;;5044974;28;20417;-86
2020/12/25 09:33:45;;;;;;;;;;;;;;;;;;5043882;28;20339;-87
2020/12/25 09:36:12;;;;;;;;;;;;;;;;;;5041876;28;20430;-86
2020/12/25 09:38:43;;;;;;;;;;;;;;;;;;5042519;28;20388;-86
2020/12/25 09:41:09;;;;;;;;;;;;;;;;;;5041988;28;20411;-86
2020/12/25 09:43:36;;;;;;;;;;;;;;;;;;5043220;28;20490;-86
2020/12/25 09:46:02;;;;;;;;;;;;;;;;;;5043527;28;20418;-86
2020/12/25 09:48:29;;;;;;;;;;;;;;;;;;5042240;28;20327;-86
2020/12/25 09:50:55;;;;;;;;;;;;;;;;;;5043149;28;20395;-86
2020/12/25 09:53:21;;;;;;;;;;;;;;;;;;5043512;28;20410;-86
2020/12/25 09:55:50;;;;;;;;;;;;;;;;;;5043626;28;20411;-86
2020/12/25 09:58:17;;;;;;;;;;;;;;;;;;5043712;28;20399;-86
2020/12/25 10:00:43;;;;;;;;;;;;;;;;;;5043090;28;20690;-86
2020/12/25 10:03:09;;;;;;;;;;;;;;;;;;5046446;28;20381;-86
2020/12/25 10:05:36;;;;;;;;;;;;;;;;;;5049185;28;20418;-86
2020/12/25 10:08:02;;;;;;;;;;;;;;;;;;5044887;28;20399;-85
2020/12/25 10:10:29;;;;;;;;;;;;;;;;;;5044956;28;20399;-86
2020/12/25 10:12:55;;;;;;;;;;;;;;;;;;5042200;28;20392;-86
2020/12/25 10:15:22;;;;;;;;;;;;;;;;;;5042608;28;20415;-86
2020/12/25 10:17:48;;;;;;;;;;;;;;;;;;5042426;28;20398;-85
2020/12/25 10:20:14;;;;;;;;;;;;;;;;;;5042422;28;20384;-83
2020/12/25 10:22:41;;;;;;;;;;;;;;;;;;5040948;28;20770;-84
2020/12/25 10:25:07;;;;;;;;;;;;;;;;;;5040527;28;20394;-84
2020/12/25 10:27:34;;;;;;;;;;;;;;;;;;5040156;28;20410;-86
2020/12/25 10:30:00;;;;;;;;;;;;;;;;;;5040929;28;20776;-86
2020/12/25 10:32:27;;;;;;;;;;;;;;;;;;5042053;28;20445;-84
2020/12/25 10:34:53;;;;;;;;;;;;;;;;;;5042143;28;20418;-84
2020/12/25 10:37:20;;;;;;;;;;;;;;;;;;5041886;28;20396;-84
2020/12/25 10:39:47;;;;;;;;;;;;;;;;;;5041952;28;20394;-84
2020/12/25 10:42:14;;;;;;;;;;;;;;;;;;5042178;28;20411;-84
2020/12/25 10:44:40;;;;;;;;;;;;;;;;;;5042154;28;20474;-84
2020/12/25 10:47:07;;;;;;;;;;;;;;;;;;5040557;28;20399;-84
2020/12/25 10:49:33;;;;;;;;;;;;;;;;;;5038948;28;20724;-84
2020/12/25 10:51:59;;;;;;;;;;;;;;;;;;5041525;28;20377;-85
2020/12/25 10:54:26;;;;;;;;;;;;;;;;;;5040902;28;20876;-86
2020/12/25 10:56:52;;;;;;;;;;;;;;;;;;5042235;28;20366;-86
2020/12/25 10:59:19;;;;;;;;;;;;;;;;;;5041374;28;20395;-86
2020/12/25 11:01:48;;;;;;;;;;;;;;;;;;5041233;28;20734;-86
2020/12/25 11:04:14;;;;;;;;;;;;;;;;;;5041035;28;20393;-86
2020/12/25 11:06:40;;;;;;;;;;;;;;;;;;5041504;28;20391;-86
2020/12/25 11:09:07;;;;;;;;;;;;;;;;;;5043534;28;20394;-85
2020/12/25 11:11:33;;;;;;;;;;;;;;;;;;5044875;28;20383;-86
2020/12/25 11:14:00;;;;;;;;;;;;;;;;;;5042749;28;20817;-86
2020/12/25 11:16:26;;;;;;;;;;;;;;;;;;5042253;28;20347;-86
2020/12/25 11:18:53;;;;;;;;;;;;;;;;;;5042549;28;20839;-86
2020/12/25 11:21:19;;;;;;;;;;;;;;;;;;5043122;28;20363;-86
2020/12/25 11:23:46;;;;;;;;;;;;;;;;;;5043399;28;20387;-87
2020/12/25 11:26:12;;;;;;;;;;;;;;;;;;5043867;28;20391;-86
2020/12/25 11:28:38;;;;;;;;;;;;;;;;;;5044203;28;20451;-86
2020/12/25 11:31:05;;;;;;;;;;;;;;;;;;5043560;28;20397;-86
2020/12/25 11:33:31;;;;;;;;;;;;;;;;;;5048691;28;20354;-85
2020/12/25 11:35:58;;;;;;;;;;;;;;;;;;5045452;28;20469;-86
2020/12/25 11:38:24;;;;;;;;;;;;;;;;;;5042543;28;20469;-85
2020/12/25 11:40:51;;;;;;;;;;;;;;;;;;5043140;28;20411;-85
2020/12/25 11:43:17;;;;;;;;;;;;;;;;;;5044015;28;20406;-86
2020/12/25 11:45:44;;;;;;;;;;;;;;;;;;5044747;28;20752;-84
2020/12/25 11:48:10;;;;;;;;;;;;;;;;;;5052310;28;20684;-83
2020/12/25 11:50:36;;;;;;;;;;;;;;;;;;5050532;28;20366;-83
2020/12/25 11:53:03;;;;;;;;;;;;;;;;;;5047510;28;20890;-83
2020/12/25 11:55:29;;;;;;;;;;;;;;;;;;5042171;28;20679;-84
2020/12/25 11:57:56;;;;;;;;;;;;;;;;;;5042627;28;20369;-86
2020/12/25 12:00:22;;;;;;;;;;;;;;;;;;5044483;28;20399;-85
2020/12/25 12:02:49;;;;;;;;;;;;;;;;;;5046516;28;20415;-85
2020/12/25 12:05:16;;;;;;;;;;;;;;;;;;5045922;28;20423;-88
2020/12/25 12:07:42;;;;;;;;;;;;;;;;;;5047901;28;20395;-83
2020/12/25 12:10:08;;;;;;;;;;;;;;;;;;5053145;28;20398;-85
2020/12/25 12:12:35;;;;;;;;;;;;;;;;;;5044807;28;20387;-86
2020/12/25 12:15:01;;;;;;;;;;;;;;;;;;5046492;28;20438;-85
2020/12/25 12:17:28;;;;;;;;;;;;;;;;;;5044930;28;20398;-84
2020/12/25 12:19:54;;;;;;;;;;;;;;;;;;5045794;28;20395;-84
2020/12/25 12:22:20;;;;;;;;;;;;;;;;;;5046168;28;20415;-84
2020/12/25 12:24:47;;;;;;;;;;;;;;;;;;5045006;28;20403;-84
2020/12/25 12:27:13;;;;;;;;;;;;;;;;;;5052597;28;20395;-83
2020/12/25 12:29:40;;;;;;;;;;;;;;;;;;5047330;28;20414;-84
2020/12/25 12:32:06;;;;;;;;;;;;;;;;;;5044319;28;20391;-84
2020/12/25 12:34:33;;;;;;;;;;;;;;;;;;5043343;28;20446;-84
2020/12/25 12:36:59;;;;;;;;;;;;;;;;;;5043214;28;20388;-83
2020/12/25 12:39:25;;;;;;;;;;;;;;;;;;5045224;28;20399;-83
2020/12/25 12:41:52;;;;;;;;;;;;;;;;;;5043768;28;20352;-83
2020/12/25 12:44:18;;;;;;;;;;;;;;;;;;5043372;28;20347;-83
2020/12/25 12:46:45;;;;;;;;;;;;;;;;;;5045428;28;20391;-84
2020/12/25 12:49:11;;;;;;;;;;;;;;;;;;5043691;28;20402;-84
2020/12/25 12:51:38;;;;;;;;;;;;;;;;;;5042483;28;20690;-84
2020/12/25 12:54:04;;;;;;;;;;;;;;;;;;5042345;28;20389;-84
2020/12/25 12:56:30;;;;;;;;;;;;;;;;;;5041200;28;20387;-84
2020/12/25 12:58:57;;;;;;;;;;;;;;;;;;5042658;28;20380;-84
2020/12/25 13:01:23;;;;;;;;;;;;;;;;;;5042147;28;20411;-83
2020/12/25 13:03:50;;;;;;;;;;;;;;;;;;5043024;28;20463;-84
2020/12/25 13:06:16;;;;;;;;;;;;;;;;;;5041886;28;20344;-84
2020/12/25 13:08:42;;;;;;;;;;;;;;;;;;5039031;28;20419;-84
2020/12/25 13:11:09;;;;;;;;;;;;;;;;;;5019732;28;20402;-84
2020/12/25 13:13:35;;;;;;;;;;;;;;;;;;5022447;28;20395;-83
2020/12/25 13:16:02;;;;;;;;;;;;;;;;;;5039849;28;20423;-84
2020/12/25 13:18:28;;;;;;;;;;;;;;;;;;5040958;28;20422;-84
2020/12/25 13:20:55;;;;;;;;;;;;;;;;;;5040042;28;20415;-83
2020/12/25 13:23:21;;;;;;;;;;;;;;;;;;5040553;28;20758;-83
2020/12/25 13:25:47;;;;;;;;;;;;;;;;;;5040559;28;20448;-83
2020/12/25 13:28:14;;;;;;;;;;;;;;;;;;5044992;28;20407;-83
2020/12/25 13:30:40;;;;;;;;;;;;;;;;;;5040507;28;20394;-83
2020/12/25 13:33:07;;;;;;;;;;;;;;;;;;5039486;28;20391;-83
2020/12/25 13:35:33;;;;;;;;;;;;;;;;;;5040453;28;20408;-84
2020/12/25 13:37:59;;;;;;;;;;;;;;;;;;5040810;28;20395;-83
2020/12/25 13:40:26;;;;;;;;;;;;;;;;;;5040054;28;20920;-83
2020/12/25 13:42:52;;;;;;;;;;;;;;;;;;5039305;28;20408;-83
2020/12/25 13:45:19;;;;;;;;;;;;;;;;;;5039970;28;20937;-83
2020/12/25 13:50:26;;;;;;;;;;;;;;;;;;5039645;28;20383;-83
2020/12/25 13:55:37;;;;;;;;;;;;;;;;;;5049410;28;20410;-82
2020/12/25 13:58:03;;;;;;;;;;;;;;;;;;5040382;28;20430;-83
2020/12/25 14:00:29;;;;;;;;;;;;;;;;;;5041801;28;20398;-83
2020/12/25 14:02:56;;;;;;;;;;;;;;;;;;5038894;28;20678;-83
2020/12/25 14:05:22;;;;;;;;;;;;;;;;;;5059866;22;20448;-80
2020/12/25 14:07:48;;;;;;;;;;;;;;;;;;5037873;28;20654;-80
2020/12/25 14:10:15;;;;;;;;;;;;;;;;;;5037784;28;20925;-80
2020/12/25 14:12:41;;;;;;;;;;;;;;;;;;5037602;28;20331;-80
2020/12/25 14:15:08;;;;;;;;;;;;;;;;;;5047999;28;20408;-80
2020/12/25 14:17:34;;;;;;;;;;;;;;;;;;5072004;28;20423;-80
2020/12/25 14:20:00;;;;;;;;;;;;;;;;;;5071709;28;20396;-79
2020/12/25 14:22:27;;;;;;;;;;;;;;;;;;5071241;28;20376;-80
2020/12/25 14:24:53;;;;;;;;;;;;;;;;;;5069682;28;20441;-81
2020/12/25 14:27:19;;;;;;;;;;;;;;;;;;5067053;28;20397;-80
2020/12/25 14:29:46;;;;;;;;;;;;;;;;;;5067371;28;20392;-80
2020/12/25 14:32:12;;;;;;;;;;;;;;;;;;5057674;28;20432;-82
2020/12/25 14:34:39;;;;;;;;;;;;;;;;;;5057136;28;20482;-82
2020/12/25 14:37:05;;;;;;;;;;;;;;;;;;5057352;28;20450;-79
2020/12/25 14:39:31;;;;;;;;;;;;;;;;;;5057267;28;20400;-82
2020/12/25 14:41:58;;;;;;;;;;;;;;;;;;5058663;28;20431;-81
2020/12/25 14:44:24;;;;;;;;;;;;;;;;;;5058113;28;20413;-81
2020/12/25 14:46:51;;;;;;;;;;;;;;;;;;5059084;28;20388;-81
2020/12/25 14:49:17;;;;;;;;;;;;;;;;;;5066138;28;20389;-81
2020/12/25 14:51:43;;;;;;;;;;;;;;;;;;5076690;28;20380;-81
2020/12/25 14:54:13;;;;;;;;;;;;;;;;;;5076228;28;20457;-80
2020/12/25 14:56:39;;;;;;;;;;;;;;;;;;5072142;28;20400;-81
2020/12/25 14:59:06;;;;;;;;;;;;;;;;;;5058102;28;20393;-80
2020/12/25 15:01:32;;;;;;;;;;;;;;;;;;5057135;28;20405;-79
2020/12/25 15:03:58;;;;;;;;;;;;;;;;;;5056580;28;20729;-80
2020/12/25 15:06:25;;;;;;;;;;;;;;;;;;5056648;28;20373;-81
2020/12/25 15:08:51;;;;;;;;;;;;;;;;;;5057282;28;20389;-80
2020/12/25 15:11:18;;;;;;;;;;;;;;;;;;5056611;28;20434;-81
2020/12/25 15:13:44;;;;;;;;;;;;;;;;;;5057336;28;20388;-81
2020/12/25 15:16:10;;;;;;;;;;;;;;;;;;5056552;28;20419;-81
2020/12/25 15:18:37;;;;;;;;;;;;;;;;;;5056516;28;20442;-81
2020/12/25 15:21:03;;;;;;;;;;;;;;;;;;5057152;28;20894;-81
2020/12/25 15:23:30;;;;;;;;;;;;;;;;;;5057062;28;20348;-80
2020/12/25 15:25:57;;;;;;;;;;;;;;;;;;5055910;28;20413;-80
2020/12/25 15:28:23;;;;;;;;;;;;;;;;;;5056801;28;20393;-80
2020/12/25 15:30:50;;;;;;;;;;;;;;;;;;5057419;28;20702;-82
2020/12/25 15:33:16;;;;;;;;;;;;;;;;;;5057939;28;20354;-82
2020/12/25 15:35:42;;;;;;;;;;;;;;;;;;5074989;28;20416;-80
2020/12/25 15:38:09;;;;;;;;;;;;;;;;;;5080345;28;20392;-78
2020/12/25 15:40:35;;;;;;;;;;;;;;;;;;5080096;28;20403;-80
2020/12/25 15:43:01;;;;;;;;;;;;;;;;;;5064947;28;20442;-81
2020/12/25 15:45:28;;;;;;;;;;;;;;;;;;5059821;28;20415;-79
2020/12/25 15:47:54;;;;;;;;;;;;;;;;;;5061199;28;20396;-81
2020/12/25 15:50:20;;;;;;;;;;;;;;;;;;5060560;28;20392;-79
2020/12/25 15:52:47;;;;;;;;;;;;;;;;;;5060865;28;20392;-80
2020/12/25 15:55:13;;;;;;;;;;;;;;;;;;5060193;28;20454;-81
2020/12/25 15:57:39;;;;;;;;;;;;;;;;;;5060529;28;20415;-81
2020/12/25 16:00:06;;;;;;;;;;;;;;;;;;5062785;28;20394;-80
2020/12/25 16:02:32;;;;;;;;;;;;;;;;;;5064112;28;20413;-80
2020/12/25 16:04:59;;;;;;;;;;;;;;;;;;5063070;28;20456;-80
2020/12/25 16:07:25;;;;;;;;;;;;;;;;;;5061579;28;20733;-81
2020/12/25 16:09:51;;;;;;;;;;;;;;;;;;5061664;28;20367;-82
2020/12/25 16:12:18;;;;;;;;;;;;;;;;;;5065711;28;20479;-81
2020/12/25 16:14:44;;;;;;;;;;;;;;;;;;5076261;28;20435;-80
2020/12/25 16:17:11;;;;;;;;;;;;;;;;;;5079073;28;20400;-82
2020/12/25 16:19:37;;;;;;;;;;;;;;;;;;5075562;28;20389;-80
2020/12/25 16:22:03;;;;;;;;;;;;;;;;;;5064164;28;20427;-81
2020/12/25 16:24:30;;;;;;;;;;;;;;;;;;5064795;28;20917;-81
2020/12/25 16:26:56;;;;;;;;;;;;;;;;;;5059284;28;20338;-81
2020/12/25 16:29:22;;;;;;;;;;;;;;;;;;5059637;28;20388;-81
2020/12/25 16:31:49;;;;;;;;;;;;;;;;;;5060457;28;20385;-81
2020/12/25 16:34:15;;;;;;;;;;;;;;;;;;5060211;28;20337;-81
2020/12/25 16:36:41;;;;;;;;;;;;;;;;;;5059787;28;20386;-81
2020/12/25 16:39:08;;;;;;;;;;;;;;;;;;5060374;28;20827;-81
2020/12/25 16:41:34;;;;;;;;;;;;;;;;;;5061034;28;20358;-81
2020/12/25 16:44:01;;;;;;;;;;;;;;;;;;5060256;28;20389;-81
2020/12/25 16:46:27;;;;;;;;;;;;;;;;;;5059094;28;20413;-81
2020/12/25 16:48:53;;;;;;;;;;;;;;;;;;5059675;28;20392;-81
2020/12/25 16:51:20;;;;;;;;;;;;;;;;;;5059631;28;20393;-81
2020/12/25 16:53:46;;;;;;;;;;;;;;;;;;5059399;28;20919;-81
2020/12/25 16:56:12;;;;;;;;;;;;;;;;;;5059217;28;20383;-81
2020/12/25 16:58:39;;;;;;;;;;;;;;;;;;5059899;28;20872;-81
2020/12/25 17:01:06;;;;;;;;;;;;;;;;;;5059757;28;20330;-82
2020/12/25 17:03:32;;;;;;;;;;;;;;;;;;5060697;28;20679;-82
2020/12/25 17:05:59;;;;;;;;;;;;;;;;;;5044032;28;20401;-82
2020/12/25 17:08:25;;;;;;;;;;;;;;;;;;5040139;28;20387;-81
2020/12/25 17:10:52;;;;;;;;;;;;;;;;;;5050089;28;20411;-79
2020/12/25 17:13:18;;;;;;;;;;;;;;;;;;5058322;28;20903;-79
2020/12/25 17:15:44;;;;;;;;;;;;;;;;;;5058734;28;20464;-79